createdAt,value
2022-08-17T00:01:32.730Z,12.52
2022-08-17T00:04:19.055Z,11.23
2022-08-17T00:06:46.054Z,11.35
2022-08-17T00:09:18.755Z,12.55
2022-08-17T00:12:34.982Z,13.90
2022-08-17T00:14:35.050Z,16.15
2022-08-17T00:17:03.936Z,11.88
2022-08-17T00:19:32.713Z,14.73
2022-08-17T00:22:32.437Z,12.88
2022-08-17T00:28:33.304Z,13.45
2022-08-17T00:31:00.975Z,14.57
2022-08-17T00:33:31.112Z,15.38
2022-08-17T00:35:58.998Z,17.13
2022-08-17T00:38:26.854Z,14.55
2022-08-17T00:41:06.831Z,16.30
2022-08-17T00:43:40.885Z,14.35
2022-08-17T00:46:14.496Z,18.05
2022-08-17T00:48:42.315Z,14.90
2022-08-17T00:51:46.584Z,16.58
2022-08-17T00:54:18.671Z,15.57
2022-08-17T00:56:53.920Z,16.63
2022-08-17T00:59:23.165Z,14.63
2022-08-17T01:01:50.807Z,15.45
2022-08-17T01:04:20.123Z,16.50
2022-08-17T01:06:49.415Z,17.27
2022-08-17T01:09:17.846Z,13.63
2022-08-17T01:11:46.270Z,18.90
2022-08-17T01:14:13.305Z,14.00
2022-08-17T01:16:39.906Z,13.00
2022-08-17T01:19:20.242Z,12.73
2022-08-17T01:22:01.064Z,13.68
2022-08-17T01:24:27.790Z,12.38
2022-08-17T01:26:54.209Z,14.45
2022-08-17T01:29:24.802Z,13.93
2022-08-17T01:31:56.337Z,12.30
2022-08-17T01:34:25.066Z,11.88
2022-08-17T01:37:11.095Z,11.73
2022-08-17T01:39:43.577Z,12.43
2022-08-17T01:42:43.164Z,12.80
2022-08-17T01:45:15.101Z,11.38
2022-08-17T01:47:41.755Z,11.23
2022-08-17T01:50:11.745Z,12.07
2022-08-17T01:52:39.322Z,11.27
2022-08-17T01:55:07.268Z,11.55
2022-08-17T01:57:34.315Z,11.48
2022-08-17T02:00:01.207Z,11.13
2022-08-17T02:02:31.385Z,10.40
2022-08-17T02:04:58.291Z,11.55
2022-08-17T02:07:27.143Z,12.15
2022-08-17T02:09:54.037Z,11.57
2022-08-17T02:12:38.043Z,11.02
2022-08-17T02:15:09.263Z,11.48
2022-08-17T02:17:35.861Z,13.82
2022-08-17T02:20:02.297Z,11.18
2022-08-17T02:22:29.025Z,10.30
2022-08-17T02:25:00.889Z,9.65
2022-08-17T02:27:29.292Z,10.60
2022-08-17T02:29:55.778Z,11.30
2022-08-17T02:32:27.857Z,10.77
2022-08-17T02:34:56.401Z,14.38
2022-08-17T02:37:23.034Z,11.00
2022-08-17T02:39:49.542Z,11.45
2022-08-17T02:42:16.024Z,11.82
2022-08-17T02:44:42.509Z,12.82
2022-08-17T02:47:10.486Z,11.88
2022-08-17T02:49:37.392Z,11.55
2022-08-17T02:52:06.581Z,11.32
2022-08-17T02:54:39.638Z,14.63
2022-08-17T02:57:09.594Z,11.13
2022-08-17T02:59:36.117Z,12.85
2022-08-17T03:02:04.563Z,9.48
2022-08-17T03:04:31.214Z,11.95
2022-08-17T03:07:02.277Z,11.18
2022-08-17T03:09:28.922Z,9.45
2022-08-17T03:11:56.114Z,10.18
2022-08-17T03:14:26.160Z,9.93
2022-08-17T03:16:53.727Z,10.82
2022-08-17T03:19:20.900Z,10.35
2022-08-17T03:21:47.337Z,9.98
2022-08-17T03:24:21.849Z,14.65
2022-08-17T03:26:55.268Z,11.48
2022-08-17T03:29:21.788Z,14.43
2022-08-17T03:31:49.432Z,11.90
2022-08-17T03:34:17.336Z,13.55
2022-08-17T03:36:44.566Z,11.38
2022-08-17T03:39:11.047Z,10.98
2022-08-17T03:41:39.111Z,11.80
2022-08-17T03:44:05.625Z,11.10
2022-08-17T03:46:50.785Z,10.93
2022-08-17T03:49:35.736Z,13.27
2022-08-17T03:52:20.558Z,11.25
2022-08-17T03:55:22.238Z,10.40
2022-08-17T03:58:02.601Z,10.10
2022-08-17T04:00:29.133Z,13.80
2022-08-17T04:02:55.655Z,9.93
2022-08-17T04:05:22.083Z,11.13
2022-08-17T04:07:48.560Z,13.00
2022-08-17T04:10:15.117Z,10.25
2022-08-17T04:12:48.565Z,10.50
2022-08-17T04:15:15.881Z,10.40
2022-08-17T04:17:44.223Z,11.73
2022-08-17T04:20:12.835Z,9.35
2022-08-17T04:22:39.381Z,11.65
2022-08-17T04:25:13.794Z,12.05
2022-08-17T04:27:40.263Z,11.98
2022-08-17T04:30:07.445Z,10.50
2022-08-17T04:33:05.446Z,15.32
2022-08-17T04:35:38.797Z,10.75
2022-08-17T04:38:07.176Z,11.65
2022-08-17T04:40:52.743Z,13.45
2022-08-17T04:43:22.153Z,10.27
2022-08-17T04:45:56.648Z,8.93
2022-08-17T04:48:35.456Z,10.60
2022-08-17T04:51:10.074Z,10.57
2022-08-17T04:53:38.664Z,8.77
2022-08-17T04:56:05.619Z,9.73
2022-08-17T04:58:32.238Z,10.75
2022-08-17T05:00:59.015Z,12.38
2022-08-17T05:03:25.968Z,12.05
2022-08-17T05:05:52.488Z,8.82
2022-08-17T05:08:20.242Z,9.45
2022-08-17T05:10:47.489Z,8.57
2022-08-17T05:13:17.463Z,8.35
2022-08-17T05:15:47.627Z,10.75
2022-08-17T05:18:15.540Z,9.80
2022-08-17T05:20:43.620Z,9.85
2022-08-17T05:23:14.705Z,9.25
2022-08-17T05:25:47.410Z,9.35
2022-08-17T05:28:16.028Z,11.90
2022-08-17T05:30:43.936Z,7.68
2022-08-17T05:33:13.261Z,9.85
2022-08-17T05:35:44.010Z,9.63
2022-08-17T05:38:10.743Z,8.82
2022-08-17T05:40:38.298Z,7.78
2022-08-17T05:43:25.506Z,8.45
2022-08-17T05:46:16.095Z,9.52
2022-08-17T05:48:51.978Z,10.05
2022-08-17T05:54:24.926Z,15.00
2022-08-17T05:57:28.991Z,10.88
2022-08-17T06:00:10.915Z,9.30
2022-08-17T06:02:54.285Z,10.05
2022-08-17T06:05:39.081Z,8.65
2022-08-17T06:08:23.313Z,10.55
2022-08-17T06:11:28.243Z,9.45
2022-08-17T06:14:27.734Z,9.70
2022-08-17T06:17:00.644Z,10.40
2022-08-17T06:19:51.988Z,8.60
2022-08-17T06:22:22.238Z,12.43
2022-08-17T06:24:56.741Z,6.82
2022-08-17T06:27:32.062Z,8.73
2022-08-17T06:30:13.438Z,7.78
2022-08-17T06:32:43.699Z,6.97
2022-08-17T06:35:17.655Z,7.53
2022-08-17T06:38:38.074Z,6.38
2022-08-17T06:41:20.115Z,8.90
2022-08-17T06:44:06.135Z,8.30
2022-08-17T06:46:48.653Z,10.52
2022-08-17T06:49:21.890Z,6.10
2022-08-17T06:52:07.495Z,6.25
2022-08-17T06:54:48.948Z,5.85
2022-08-17T06:57:19.568Z,7.45
2022-08-17T06:59:55.829Z,7.50
2022-08-17T07:02:51.349Z,5.32
2022-08-17T07:08:02.857Z,3.70
2022-08-17T07:10:38.054Z,4.88
2022-08-17T07:13:51.155Z,6.90
2022-08-17T07:16:26.319Z,4.55
2022-08-17T07:18:54.779Z,4.65
2022-08-17T07:21:42.419Z,5.75
2022-08-17T07:24:29.662Z,5.18
2022-08-17T07:27:10.866Z,6.32
2022-08-17T07:29:50.492Z,5.90
2022-08-17T07:32:22.905Z,6.07
2022-08-17T07:35:37.968Z,3.58
2022-08-17T07:38:28.762Z,4.47
2022-08-17T07:41:01.844Z,5.07
2022-08-17T07:43:46.282Z,4.25
2022-08-17T07:46:53.821Z,4.15
2022-08-17T07:49:34.137Z,3.90
2022-08-17T07:52:47.682Z,5.90
2022-08-17T07:54:58.030Z,4.70
2022-08-17T07:57:36.161Z,7.45
2022-08-17T08:00:03.046Z,4.05
2022-08-17T08:02:41.329Z,4.68
2022-08-17T08:05:30.696Z,4.63
2022-08-17T08:08:26.290Z,7.20
2022-08-17T08:11:07.124Z,5.28
2022-08-17T08:13:35.333Z,5.53
2022-08-17T08:16:27.539Z,3.50
2022-08-17T08:19:00.089Z,3.78
2022-08-17T08:21:51.293Z,6.57
2022-08-17T08:24:52.196Z,4.30
2022-08-17T08:27:55.294Z,6.15
2022-08-17T08:30:22.359Z,6.35
2022-08-17T08:33:20.613Z,4.63
2022-08-17T08:35:55.315Z,3.90
2022-08-17T08:38:34.422Z,4.47
2022-08-17T08:41:05.563Z,4.93
2022-08-17T08:43:52.781Z,4.10
2022-08-17T08:46:59.938Z,3.85
2022-08-17T08:50:03.259Z,5.80
2022-08-17T08:52:48.150Z,3.53
2022-08-17T08:55:20.665Z,3.70
2022-08-17T08:57:57.071Z,4.05
2022-08-17T09:00:26.181Z,4.28
2022-08-17T09:03:08.409Z,3.53
2022-08-17T09:05:48.435Z,4.05
2022-08-17T09:08:35.394Z,7.20
2022-08-17T09:11:09.358Z,5.32
2022-08-17T09:13:54.209Z,3.38
2022-08-17T09:17:00.665Z,6.53
2022-08-17T09:19:49.054Z,4.05
2022-08-17T09:22:31.439Z,2.70
2022-08-17T09:25:17.441Z,5.30
2022-08-17T09:27:50.283Z,3.65
2022-08-17T09:30:18.284Z,3.33
2022-08-17T09:32:52.058Z,4.40
2022-08-17T09:35:32.958Z,2.75
2022-08-17T09:38:33.726Z,3.25
2022-08-17T09:41:23.758Z,4.15
2022-08-17T09:44:02.404Z,5.55
2022-08-17T09:46:43.769Z,3.88
2022-08-17T09:49:27.010Z,2.20
2022-08-17T09:52:13.779Z,3.45
2022-08-17T09:54:41.516Z,3.50
2022-08-17T09:57:29.369Z,4.25
2022-08-17T10:00:11.450Z,10.48
2022-08-17T10:03:00.441Z,2.25
2022-08-17T10:05:51.253Z,3.08
2022-08-17T10:08:29.360Z,2.30
2022-08-17T10:11:08.062Z,3.20
2022-08-17T10:13:37.949Z,2.90
2022-08-17T10:16:20.525Z,2.50
2022-08-17T10:19:03.412Z,2.92
2022-08-17T10:21:51.027Z,2.45
2022-08-17T10:25:20.975Z,3.70
2022-08-17T10:27:55.197Z,4.22
2022-08-17T10:30:24.988Z,3.33
2022-08-17T10:33:05.167Z,2.60
2022-08-17T10:35:46.815Z,3.22
2022-08-17T10:38:21.518Z,2.10
2022-08-17T10:41:06.525Z,7.72
2022-08-17T10:44:39.095Z,2.53
2022-08-17T10:46:59.532Z,2.30
2022-08-17T10:49:29.553Z,3.95
2022-08-17T10:51:59.015Z,2.92
2022-08-17T10:54:25.378Z,4.97
2022-08-17T10:56:53.998Z,2.67
2022-08-17T10:59:48.605Z,4.80
2022-08-17T11:02:19.704Z,4.60
2022-08-17T11:04:49.963Z,4.10
2022-08-17T11:07:34.936Z,3.72
2022-08-17T11:10:10.650Z,2.13
2022-08-17T11:12:45.345Z,2.25
2022-08-17T11:15:24.600Z,3.70
2022-08-17T11:17:58.142Z,2.75
2022-08-17T11:20:46.458Z,2.83
2022-08-17T11:23:34.375Z,2.47
2022-08-17T11:26:08.213Z,4.53
2022-08-17T11:28:48.759Z,1.90
2022-08-17T11:31:38.593Z,2.67
2022-08-17T11:34:18.764Z,3.80
2022-08-17T11:37:04.029Z,1.88
2022-08-17T11:39:36.816Z,2.65
2022-08-17T11:42:19.883Z,2.15
2022-08-17T11:45:32.397Z,1.88
2022-08-17T11:48:41.805Z,6.05
2022-08-17T11:51:30.334Z,3.08
2022-08-17T11:54:31.138Z,2.33
2022-08-17T11:56:52.875Z,2.60
2022-08-17T11:59:39.448Z,1.95
2022-08-17T12:02:31.761Z,2.60
2022-08-17T12:05:27.422Z,3.08
2022-08-17T12:08:05.550Z,3.05
2022-08-17T12:10:35.556Z,2.28
2022-08-17T12:13:21.738Z,4.93
2022-08-17T12:15:52.698Z,3.08
2022-08-17T12:18:25.847Z,2.67
2022-08-17T12:21:15.905Z,3.55
2022-08-17T12:24:15.927Z,4.63
2022-08-17T12:26:44.090Z,5.18
2022-08-17T12:29:18.211Z,2.22
2022-08-17T12:32:06.954Z,4.13
2022-08-17T12:34:38.282Z,2.33
2022-08-17T12:37:08.066Z,6.18
2022-08-17T12:39:34.905Z,3.35
2022-08-17T12:42:02.762Z,2.00
2022-08-17T12:44:33.663Z,8.40
2022-08-17T12:47:22.622Z,3.35
2022-08-17T12:49:52.374Z,2.15
2022-08-17T12:52:32.857Z,2.45
2022-08-17T12:55:01.959Z,2.55
2022-08-17T12:57:49.047Z,2.08
2022-08-17T13:00:21.911Z,2.33
2022-08-17T13:03:12.993Z,2.17
2022-08-17T13:06:06.230Z,2.50
2022-08-17T13:08:43.118Z,3.53
2022-08-17T13:11:20.337Z,1.58
2022-08-17T13:13:52.427Z,2.00
2022-08-17T13:16:31.907Z,3.28
2022-08-17T13:19:08.895Z,2.08
2022-08-17T13:21:37.620Z,2.65
2022-08-17T13:24:14.702Z,1.55
2022-08-17T13:26:45.882Z,2.50
2022-08-17T13:29:38.882Z,6.10
2022-08-17T13:32:07.996Z,1.85
2022-08-17T13:35:01.652Z,2.17
2022-08-17T13:37:32.986Z,1.80
2022-08-17T13:39:59.503Z,2.70
2022-08-17T13:42:50.585Z,1.40
2022-08-17T13:45:36.022Z,2.08
2022-08-17T13:48:08.906Z,1.50
2022-08-17T13:50:55.494Z,1.48
2022-08-17T13:53:53.259Z,1.50
2022-08-17T13:56:39.658Z,1.65
2022-08-17T13:59:11.256Z,1.58
2022-08-17T14:01:53.413Z,2.13
2022-08-17T14:04:27.832Z,3.55
2022-08-17T14:07:02.984Z,2.28
2022-08-17T14:09:37.471Z,2.50
2022-08-17T14:12:10.587Z,1.93
2022-08-17T14:14:38.128Z,1.70
2022-08-17T14:17:05.492Z,3.17
2022-08-17T14:19:34.766Z,3.60
2022-08-17T14:22:01.878Z,2.10
2022-08-17T14:24:44.743Z,2.55
2022-08-17T14:27:18.382Z,3.65
2022-08-17T14:29:45.070Z,2.17
2022-08-17T14:32:18.433Z,2.30
2022-08-17T14:34:46.150Z,2.70
2022-08-17T14:37:13.003Z,3.53
2022-08-17T14:39:39.784Z,3.17
2022-08-17T14:42:06.577Z,5.85
2022-08-17T14:44:33.114Z,4.35
2022-08-17T14:46:59.573Z,2.05
2022-08-17T14:49:26.242Z,2.30
2022-08-17T14:51:52.938Z,2.20
2022-08-17T14:54:32.699Z,2.90
2022-08-17T14:57:00.950Z,2.50
2022-08-17T14:59:48.879Z,3.00
2022-08-17T15:02:30.115Z,2.60
2022-08-17T15:07:32.197Z,4.68
2022-08-17T15:10:01.515Z,2.28
2022-08-17T15:12:32.846Z,2.30
2022-08-17T15:15:01.137Z,5.43
2022-08-17T15:17:54.739Z,3.50
2022-08-17T15:20:18.420Z,5.47
2022-08-17T15:22:46.895Z,4.07
2022-08-17T15:25:14.662Z,3.63
2022-08-17T15:27:41.917Z,2.88
2022-08-17T15:30:10.039Z,3.30
2022-08-17T15:32:39.638Z,3.30
2022-08-17T15:35:08.789Z,2.55
2022-08-17T15:37:36.348Z,3.08
2022-08-17T15:40:04.171Z,3.22
2022-08-17T15:42:30.802Z,4.72
2022-08-17T15:44:57.519Z,2.25
2022-08-17T15:47:24.596Z,3.00
2022-08-17T15:49:51.086Z,2.45
2022-08-17T15:52:22.532Z,5.70
2022-08-17T15:54:57.390Z,2.40
2022-08-17T15:57:25.748Z,2.30
2022-08-17T15:59:55.265Z,3.47
2022-08-17T16:03:32.004Z,2.72
2022-08-17T16:05:24.873Z,2.47
2022-08-17T16:07:51.987Z,2.47
2022-08-17T16:10:19.501Z,3.53
2022-08-17T16:12:48.257Z,3.13
2022-08-17T16:15:15.269Z,3.45
2022-08-17T16:17:42.066Z,3.53
2022-08-17T16:20:10.427Z,3.08
2022-08-17T16:22:47.836Z,2.20
2022-08-17T16:25:19.460Z,2.25
2022-08-17T16:27:48.199Z,2.65
2022-08-17T16:30:17.543Z,4.60
2022-08-17T16:32:45.755Z,5.38
2022-08-17T16:35:16.173Z,3.05
2022-08-17T16:37:45.513Z,3.67
2022-08-17T16:40:14.322Z,4.43
2022-08-17T16:42:41.604Z,3.92
2022-08-17T16:45:10.510Z,3.47
2022-08-17T16:47:37.177Z,2.90
2022-08-17T16:50:06.399Z,3.95
2022-08-17T16:52:33.604Z,3.53
2022-08-17T16:55:02.146Z,3.22
2022-08-17T16:57:29.740Z,3.20
2022-08-17T16:59:56.881Z,4.20
2022-08-17T17:02:28.239Z,10.70
2022-08-17T17:05:11.655Z,12.50
2022-08-17T17:07:40.845Z,17.70
2022-08-17T17:10:17.730Z,13.95
2022-08-17T17:13:02.835Z,14.48
2022-08-17T17:15:43.860Z,14.82
2022-08-17T17:18:14.729Z,15.43
2022-08-17T17:20:56.650Z,14.82
2022-08-17T17:23:29.474Z,16.17
2022-08-17T17:25:55.994Z,15.98
2022-08-17T17:28:48.756Z,16.15
2022-08-17T17:31:23.749Z,14.60
2022-08-17T17:33:56.304Z,15.43
2022-08-17T17:36:28.637Z,18.55
2022-08-17T17:39:01.585Z,15.43
2022-08-17T17:41:36.815Z,16.02
2022-08-17T17:44:10.999Z,20.02
2022-08-17T17:46:42.007Z,16.40
2022-08-17T17:49:11.197Z,14.38
2022-08-17T17:52:09.327Z,17.85
2022-08-17T17:54:56.684Z,14.73
2022-08-17T17:57:42.241Z,17.03
2022-08-17T18:00:37.241Z,14.88
2022-08-17T18:03:03.882Z,15.52
2022-08-17T18:05:56.432Z,15.93
2022-08-17T18:08:37.546Z,16.45
2022-08-17T18:11:40.052Z,18.08
2022-08-17T18:14:14.840Z,17.25
2022-08-17T18:16:42.976Z,17.73
2022-08-17T18:19:21.088Z,17.15
2022-08-17T18:21:52.929Z,18.58
2022-08-17T18:24:30.992Z,19.02
2022-08-17T18:27:00.341Z,20.73
2022-08-17T18:29:47.638Z,18.10
2022-08-17T18:32:36.398Z,23.38
2022-08-17T18:35:08.682Z,19.23
2022-08-17T18:37:47.767Z,19.95
2022-08-17T18:40:17.131Z,21.00
2022-08-17T18:43:03.054Z,19.48
2022-08-17T18:45:41.797Z,21.58
2022-08-17T18:48:23.101Z,22.88
2022-08-17T18:50:51.572Z,21.13
2022-08-17T18:53:41.011Z,21.80
2022-08-17T18:56:49.452Z,21.02
2022-08-17T18:59:34.298Z,23.98
2022-08-17T19:02:20.732Z,23.67
2022-08-17T19:04:55.711Z,18.30
2022-08-17T19:07:22.324Z,17.27
2022-08-17T19:09:55.930Z,14.45
2022-08-17T19:12:55.199Z,13.68
2022-08-17T19:15:33.788Z,11.55
2022-08-17T19:18:15.761Z,13.02
2022-08-17T19:20:48.055Z,13.05
2022-08-17T19:23:29.688Z,10.80
2022-08-17T19:26:01.640Z,9.77
2022-08-17T19:28:48.532Z,10.18
2022-08-17T19:31:26.106Z,8.82
2022-08-17T19:33:54.323Z,10.55
2022-08-17T19:36:28.180Z,9.27
2022-08-17T19:39:03.849Z,9.55
2022-08-17T19:41:54.783Z,10.07
2022-08-17T19:45:15.736Z,8.88
2022-08-17T19:48:05.507Z,8.57
2022-08-17T19:50:43.446Z,8.85
2022-08-17T19:54:04.339Z,11.38
2022-08-17T19:56:47.542Z,8.10
2022-08-17T19:59:20.088Z,8.05
2022-08-17T20:02:19.605Z,7.07
2022-08-17T20:04:49.175Z,7.40
2022-08-17T20:07:19.954Z,7.25
2022-08-17T20:10:11.934Z,8.20
2022-08-17T20:12:42.610Z,7.75
2022-08-17T20:15:16.979Z,10.20
2022-08-17T20:17:46.901Z,7.22
2022-08-17T20:20:36.607Z,6.95
2022-08-17T20:23:53.159Z,6.75
2022-08-17T20:26:26.936Z,7.15
2022-08-17T20:29:29.520Z,6.97
2022-08-17T20:32:18.907Z,8.23
2022-08-17T20:34:47.706Z,7.47
2022-08-17T20:37:14.812Z,7.05
2022-08-17T20:39:50.244Z,8.65
2022-08-17T20:42:22.503Z,8.07
2022-08-17T20:44:52.866Z,9.20
2022-08-17T20:47:33.485Z,8.43
2022-08-17T20:50:05.836Z,7.68
2022-08-17T20:52:47.239Z,7.43
2022-08-17T20:55:51.534Z,10.57
2022-08-17T20:58:30.931Z,12.27
2022-08-17T21:00:57.823Z,9.85
2022-08-17T21:03:24.416Z,8.98
2022-08-17T21:06:11.138Z,10.95
2022-08-17T21:08:53.900Z,9.63
2022-08-17T21:11:59.962Z,8.02
2022-08-17T21:14:29.474Z,7.53
2022-08-17T21:17:34.019Z,8.23
2022-08-17T21:20:35.953Z,8.38
2022-08-17T21:23:34.918Z,8.10
2022-08-17T21:26:26.700Z,8.00
2022-08-17T21:29:30.230Z,9.35
2022-08-17T21:32:03.855Z,8.95
2022-08-17T21:34:36.418Z,8.95
2022-08-17T21:37:23.490Z,8.98
2022-08-17T21:39:58.080Z,8.50
2022-08-17T21:42:29.648Z,12.65
2022-08-17T21:45:00.508Z,10.15
2022-08-17T21:47:29.810Z,9.77
2022-08-17T21:50:16.072Z,11.05
2022-08-17T21:52:43.439Z,11.02
2022-08-17T21:55:21.453Z,10.75
2022-08-17T21:57:53.183Z,10.23
2022-08-17T22:00:36.819Z,13.00
2022-08-17T22:03:19.769Z,13.32
2022-08-17T22:05:48.176Z,10.40
2022-08-17T22:08:24.248Z,10.23
2022-08-17T22:10:51.908Z,12.25
2022-08-17T22:13:18.315Z,10.65
2022-08-17T22:15:49.495Z,12.07
2022-08-17T22:18:25.070Z,11.52
2022-08-17T22:20:55.906Z,10.50
2022-08-17T22:23:48.142Z,10.35
2022-08-17T22:26:18.081Z,10.43
2022-08-17T22:28:49.079Z,11.15
2022-08-17T22:31:24.329Z,11.50
2022-08-17T22:34:13.510Z,12.25
2022-08-17T22:36:42.112Z,11.27
2022-08-17T22:39:08.475Z,12.13
2022-08-17T22:41:48.155Z,10.75
2022-08-17T22:44:20.600Z,12.07
2022-08-17T22:47:01.116Z,11.82
2022-08-17T22:49:53.467Z,12.45
2022-08-17T22:52:23.715Z,11.60
2022-08-17T22:55:25.941Z,12.77
2022-08-17T22:58:13.179Z,11.77
2022-08-17T23:00:43.205Z,11.95
2022-08-17T23:03:16.628Z,13.15
2022-08-17T23:06:05.046Z,11.68
2022-08-17T23:08:35.613Z,13.25
2022-08-17T23:11:02.466Z,13.77
2022-08-17T23:13:30.097Z,12.60
2022-08-17T23:15:56.523Z,13.15
2022-08-17T23:18:23.425Z,13.43
2022-08-17T23:20:49.876Z,14.75
2022-08-17T23:23:23.427Z,13.25
2022-08-17T23:25:50.331Z,13.48
2022-08-17T23:28:16.961Z,13.15
2022-08-17T23:30:46.594Z,13.38
2022-08-17T23:33:25.603Z,13.27
2022-08-17T23:35:52.893Z,12.15
2022-08-17T23:38:19.343Z,12.98
2022-08-17T23:40:45.811Z,12.38
2022-08-17T23:43:24.742Z,13.57
2022-08-17T23:45:57.533Z,13.95
2022-08-17T23:48:36.062Z,17.77
2022-08-17T23:51:08.621Z,12.68
2022-08-17T23:53:36.701Z,15.23
2022-08-17T23:56:09.857Z,12.57
2022-08-17T23:58:38.514Z,12.98
